Time;durP1;ratioP1;P1;durP2;ratioP2;P2;SDS_P1;SDS_P2;PMS_P1;PMS_P2;Temp;Humidity;BMP_temperature;BMP_pressure;BME280_temperature;BME280_humidity;BME280_pressure;Samples;Min_cycle;Max_cycle;Signal;HPM_P1;HPM_P2
2022/03/28 04:57:08;;;;;;;19.50;7.50;;;;;;;6.97;52.88;94890.75;5062505;28;20086;-76
2022/03/28 04:59:33;;;;;;;17.92;7.13;;;;;;;7.06;52.60;94885.69;5062446;28;20024;-77
2022/03/28 05:01:59;;;;;;;14.48;6.53;;;;;;;7.15;52.36;94884.13;5062688;28;20130;-76
2022/03/28 05:04:25;;;;;;;17.88;6.20;;;;;;;7.32;52.24;94881.19;5062709;28;20016;-75
2022/03/28 05:06:51;;;;;;;21.30;5.95;;;;;;;7.34;51.98;94893.09;5062717;28;20021;-76
2022/03/28 05:09:17;;;;;;;14.95;6.50;;;;;;;7.36;52.40;94888.34;5062467;28;20224;-76
2022/03/28 05:11:43;;;;;;;23.23;6.88;;;;;;;7.47;52.11;94890.97;5062457;28;20068;-77
2022/03/28 05:14:08;;;;;;;46.78;9.10;;;;;;;7.58;51.80;94903.16;5062420;28;20021;-77
2022/03/28 05:16:34;;;;;;;35.38;10.30;;;;;;;7.59;51.52;94899.44;5062445;28;20070;-78
2022/03/28 05:18:59;;;;;;;45.28;11.32;;;;;;;7.55;51.43;94901.03;5062412;28;20021;-77
2022/03/28 05:21:25;;;;;;;40.85;12.02;;;;;;;7.50;51.26;94907.16;5061388;28;20024;-77
2022/03/28 05:23:50;;;;;;;59.65;13.00;;;;;;;7.55;51.36;94898.38;5062708;28;20021;-77
2022/03/28 05:26:16;;;;;;;40.45;12.63;;;;;;;7.59;51.44;94908.22;5061456;28;20032;-77
2022/03/28 05:28:41;;;;;;;41.95;10.98;;;;;;;7.65;51.37;94901.03;5062389;28;20311;-77
2022/03/28 05:31:07;;;;;;;26.67;11.38;;;;;;;7.71;51.09;94905.25;5062396;28;20087;-77
2022/03/28 05:33:33;;;;;;;25.17;11.40;;;;;;;7.81;51.02;94902.56;5062288;28;20024;-78
2022/03/28 05:35:59;;;;;;;28.38;12.05;;;;;;;7.87;50.58;94913.97;5062593;28;20228;-77
2022/03/28 05:38:24;;;;;;;30.08;13.45;;;;;;;7.86;50.18;94906.28;5062275;28;20025;-77
2022/03/28 05:40:50;;;;;;;42.40;13.82;;;;;;;7.87;50.09;94913.19;5061355;28;20025;-78
2022/03/28 05:43:16;;;;;;;31.48;14.23;;;;;;;7.92;49.74;94902.56;5062163;28;20032;-77
2022/03/28 05:45:42;;;;;;;41.72;13.93;;;;;;;7.98;49.65;94912.09;5062173;28;20032;-77
2022/03/28 05:48:07;;;;;;;40.67;14.50;;;;;;;7.96;49.23;94911.59;5061178;28;20252;-78
2022/03/28 05:50:33;;;;;;;40.05;13.88;;;;;;;7.98;49.21;94912.09;5062486;28;20029;-88
2022/03/28 05:52:59;;;;;;;43.67;15.85;;;;;;;8.04;49.19;94909.16;5062913;28;20021;-88
2022/03/28 05:55:24;;;;;;;39.55;14.57;;;;;;;8.06;49.40;94916.88;5062908;28;20259;-88
2022/03/28 05:57:50;;;;;;;56.92;17.60;;;;;;;8.06;49.21;94908.91;5062566;28;20163;-88
2022/03/28 06:00:15;;;;;;;29.00;12.95;;;;;;;8.10;48.94;94909.94;5062772;28;20025;-86
2022/03/28 06:02:42;;;;;;;36.15;13.38;;;;;;;8.13;48.86;94914.69;5063664;28;20020;-81
2022/03/28 06:05:08;;;;;;;46.50;14.00;;;;;;;8.15;49.13;94919.75;5062430;28;20041;-77
2022/03/28 06:07:34;;;;;;;43.38;14.90;;;;;;;8.15;49.27;94912.56;5062050;28;20219;-75
2022/03/28 06:09:59;;;;;;;29.75;14.63;;;;;;;8.16;48.94;94906.19;5062079;28;20323;-73
2022/03/28 06:12:25;;;;;;;45.03;15.07;;;;;;;8.17;49.21;94910.44;5064892;28;20047;-73
2022/03/28 06:14:50;;;;;;;43.13;14.82;;;;;;;8.19;49.30;94916.25;5065811;28;20047;-73
2022/03/28 06:17:23;;;;;;;47.70;15.05;;;;;;;8.29;48.96;94922.63;5065917;28;20263;-73
2022/03/28 06:19:49;;;;;;;33.80;12.63;;;;;;;8.36;48.57;94918.56;5065666;28;20394;-73
2022/03/28 06:22:15;;;;;;;29.00;12.63;;;;;;;8.40;48.27;94918.84;5065557;28;20025;-73
2022/03/28 06:24:41;;;;;;;37.65;14.43;;;;;;;8.40;47.99;94922.28;5065834;28;20025;-73
2022/03/28 06:27:06;;;;;;;37.67;13.75;;;;;;;8.36;48.28;94923.88;5065706;28;20235;-78
2022/03/28 06:29:32;;;;;;;40.17;13.70;;;;;;;8.41;48.62;94926.56;5065412;28;20303;-78
2022/03/28 06:31:57;;;;;;;44.35;15.05;;;;;;;8.49;48.35;94922.56;5064324;28;20033;-78
2022/03/28 06:34:23;;;;;;;27.58;14.05;;;;;;;8.60;48.29;94918.75;5065550;28;20372;-77
2022/03/28 06:36:50;;;;;;;30.13;14.23;;;;;;;8.53;48.29;94939.53;5065404;28;20099;-78
2022/03/28 06:39:16;;;;;;;44.65;14.25;;;;;;;8.64;48.23;94934.97;5065481;28;20025;-74
2022/03/28 06:41:42;;;;;;;36.42;15.90;;;;;;;8.71;48.28;94924.03;5064453;28;20025;-74
2022/03/28 06:44:11;;;;;;;29.13;14.48;;;;;;;8.86;47.50;94926.59;5065039;28;20037;-74
2022/03/28 06:46:43;;;;;;;40.28;18.13;;;;;;;8.98;47.59;94932.38;5065528;28;20032;-75
2022/03/28 06:49:09;;;;;;;39.73;15.27;;;;;;;9.11;47.45;94928.28;5065191;28;20242;-75
2022/03/28 06:51:35;;;;;;;32.08;13.30;;;;;;;9.25;46.56;94925.78;5064450;28;20020;-75
2022/03/28 06:54:03;;;;;;;35.33;14.10;;;;;;;9.35;46.36;94930.25;5063188;28;20240;-75
2022/03/28 06:56:29;;;;;;;30.10;13.15;;;;;;;9.48;46.97;94926.91;5062235;28;20056;-76
2022/03/28 06:58:54;;;;;;;45.60;12.52;;;;;;;9.60;46.83;94930.00;5063567;28;20029;-75
2022/03/28 07:01:20;;;;;;;181.38;23.25;;;;;;;9.73;46.88;94911.78;5064057;28;20053;-77
2022/03/28 07:03:46;;;;;;;106.25;14.48;;;;;;;9.87;46.59;94923.38;5063257;28;20051;-76
2022/03/28 07:06:11;;;;;;;31.70;10.13;;;;;;;9.99;46.08;94925.63;5064154;28;20055;-76
2022/03/28 07:08:37;;;;;;;31.08;11.57;;;;;;;10.13;45.44;94926.53;5065495;28;20088;-75
2022/03/28 07:11:03;;;;;;;32.90;10.40;;;;;;;10.23;45.26;94921.09;5065030;28;20016;-76
2022/03/28 07:13:29;;;;;;;35.25;10.18;;;;;;;10.36;45.55;94924.19;5064293;28;20017;-75
2022/03/28 07:15:55;;;;;;;31.50;8.85;;;;;;;10.50;45.31;94932.28;5064784;28;20114;-75
2022/03/28 07:18:21;;;;;;;18.90;8.60;;;;;;;10.63;44.68;94920.94;5064807;28;20310;-76
2022/03/28 07:20:47;;;;;;;26.20;8.68;;;;;;;10.79;44.66;94929.53;5064385;28;20021;-75
2022/03/28 07:23:13;;;;;;;19.73;9.20;;;;;;;10.91;44.00;94929.88;5064009;28;20307;-75
2022/03/28 07:25:39;;;;;;;39.42;11.10;;;;;;;11.03;43.62;94921.44;5063206;28;20025;-75
2022/03/28 07:28:10;;;;;;;38.88;10.52;;;;;;;11.12;43.53;94929.59;5064179;28;20020;-75
2022/03/28 07:30:36;;;;;;;23.33;9.57;;;;;;;11.21;43.37;94936.66;5064257;28;20021;-74
2022/03/28 07:33:03;;;;;;;29.67;9.68;;;;;;;11.35;42.87;94927.91;5062959;28;20040;-74
2022/03/28 07:35:33;;;;;;;23.92;8.95;;;;;;;11.41;42.74;94930.19;5064254;28;20024;-74
2022/03/28 07:37:59;;;;;;;24.73;9.43;;;;;;;11.52;42.24;94922.00;5064064;28;20032;-74
2022/03/28 07:40:25;;;;;;;19.63;9.65;;;;;;;11.51;42.34;94928.44;5064292;28;20074;-74
2022/03/28 07:42:51;;;;;;;25.52;9.73;;;;;;;11.60;42.66;94932.81;5064260;28;20276;-73
2022/03/28 07:45:20;;;;;;;25.60;10.60;;;;;;;11.75;42.56;94917.63;5064116;28;20215;-74
2022/03/28 07:47:46;;;;;;;25.15;9.93;;;;;;;11.85;42.43;94926.25;5063868;28;20025;-73
2022/03/28 07:50:12;;;;;;;21.95;8.57;;;;;;;11.94;41.60;94926.38;5062699;28;20039;-74
2022/03/28 07:52:38;;;;;;;29.17;8.95;;;;;;;12.01;41.64;94928.69;5064122;28;20067;-75
2022/03/28 07:55:06;;;;;;;21.77;9.27;;;;;;;12.06;41.69;94920.56;5063745;28;20096;-76
2022/03/28 07:57:32;;;;;;;28.20;10.55;;;;;;;12.14;41.26;94921.75;5063650;28;20076;-75
2022/03/28 07:59:58;;;;;;;18.98;8.57;;;;;;;12.24;41.07;94911.66;5063823;28;20231;-75
2022/03/28 08:02:24;;;;;;;18.63;9.23;;;;;;;12.38;40.83;94913.53;5063891;28;20088;-76
2022/03/28 08:04:49;;;;;;;21.45;8.88;;;;;;;12.47;40.34;94909.06;5063745;28;20212;-76
2022/03/28 08:07:15;;;;;;;16.40;7.88;;;;;;;12.53;39.94;94912.44;5063576;28;20028;-77
2022/03/28 08:09:41;;;;;;;17.05;8.50;;;;;;;12.58;40.02;94915.78;5063431;28;20122;-75
2022/03/28 08:12:09;;;;;;;18.92;8.70;;;;;;;12.70;39.87;94904.59;5063555;28;20040;-75
2022/03/28 08:14:36;;;;;;;31.88;9.02;;;;;;;12.80;39.90;94900.88;5063335;28;20066;-75
2022/03/28 08:17:01;;;;;;;26.08;9.35;;;;;;;12.80;39.79;94904.38;5063395;28;20017;-76
2022/03/28 08:19:27;;;;;;;19.85;9.95;;;;;;;12.77;39.20;94896.94;5063688;28;20032;-76
2022/03/28 08:21:53;;;;;;;32.47;9.77;;;;;;;12.77;38.98;94902.28;5063078;28;20082;-76
2022/03/28 08:24:19;;;;;;;24.55;10.90;;;;;;;12.82;39.64;94891.47;5062893;28;20059;-76
2022/03/28 08:26:46;;;;;;;22.58;10.02;;;;;;;12.94;39.61;94895.50;5063008;28;20016;-77
2022/03/28 08:29:11;;;;;;;20.23;9.43;;;;;;;13.09;39.71;94889.00;5063239;28;20027;-76
2022/03/28 08:31:36;;;;;;;20.75;9.82;;;;;;;13.17;39.10;94888.28;5063092;28;20037;-76
2022/03/28 08:34:02;;;;;;;24.45;9.55;;;;;;;13.27;38.97;94881.88;5062132;28;20029;-76
2022/03/28 08:36:27;;;;;;;18.02;9.15;;;;;;;13.38;38.74;94880.59;5063375;28;20096;-77
2022/03/28 08:38:53;;;;;;;16.25;8.85;;;;;;;13.52;38.56;94883.19;5063111;28;20027;-76
2022/03/28 08:41:19;;;;;;;30.77;10.38;;;;;;;13.65;38.26;94885.00;5061967;28;20101;-76
2022/03/28 08:43:45;;;;;;;20.65;9.93;;;;;;;13.79;38.03;94863.47;5062988;28;20020;-77
2022/03/28 08:46:15;;;;;;;23.83;10.38;;;;;;;13.55;37.67;94869.97;5062966;28;20054;-77
2022/03/28 08:48:42;;;;;;;18.42;9.15;;;;;;;13.62;37.55;94864.19;5063070;28;20023;-77
2022/03/28 08:51:09;;;;;;;26.98;9.68;;;;;;;13.74;37.70;94859.03;5063004;28;20017;-77
2022/03/28 08:53:35;;;;;;;23.45;9.57;;;;;;;13.90;37.60;94856.75;5062817;28;20044;-76
2022/03/28 08:56:01;;;;;;;36.90;11.35;;;;;;;14.04;37.08;94852.09;5062519;28;20317;-76
2022/03/28 08:58:27;;;;;;;25.20;9.95;;;;;;;14.09;37.02;94847.69;5063016;28;20043;-77
2022/03/28 09:00:53;;;;;;;18.55;9.07;;;;;;;14.17;36.96;94844.22;5062738;28;20019;-77
2022/03/28 09:03:19;;;;;;;20.60;10.82;;;;;;;14.27;37.07;94843.13;5062872;28;20024;-76
2022/03/28 09:05:49;;;;;;;22.17;10.75;;;;;;;14.37;36.95;94832.09;5062658;28;20035;-76
2022/03/28 09:08:15;;;;;;;23.25;9.27;;;;;;;14.36;36.74;94838.59;5062610;28;20037;-75
2022/03/28 09:10:47;;;;;;;31.00;10.60;;;;;;;14.46;36.67;94832.94;5062485;28;20025;-76
2022/03/28 09:13:19;;;;;;;20.05;9.43;;;;;;;14.54;36.35;94839.41;5062626;28;20032;-78
2022/03/28 09:15:57;;;;;;;21.35;10.93;;;;;;;14.65;36.24;94829.97;5062703;28;20028;-75
2022/03/28 09:18:31;;;;;;;32.88;9.80;;;;;;;14.76;36.10;94825.09;5062504;28;20021;-75
2022/03/28 09:21:02;;;;;;;35.60;11.05;;;;;;;14.89;36.18;94821.47;5062433;28;20377;-75
2022/03/28 09:23:43;;;;;;;22.58;8.77;;;;;;;15.02;35.96;94812.47;5062808;28;20021;-74
2022/03/28 09:26:20;;;;;;;36.58;11.45;;;;;;;15.18;35.57;94812.75;5062636;28;20025;-74
2022/03/28 09:28:56;;;;;;;30.23;11.07;;;;;;;15.28;35.25;94814.31;5062316;28;20020;-76
2022/03/28 09:31:30;;;;;;;17.23;9.82;;;;;;;15.41;34.50;94807.97;5062696;28;20305;-78
2022/03/28 09:34:01;;;;;;;23.02;9.68;;;;;;;15.53;34.79;94807.31;5062591;28;20034;-78
2022/03/28 09:36:54;;;;;;;21.10;10.00;;;;;;;15.63;34.67;94804.25;5062564;28;20032;-78
2022/03/28 09:39:25;;;;;;;24.45;10.45;;;;;;;15.73;34.07;94800.44;5062308;28;20016;-78
2022/03/28 09:42:09;;;;;;;27.40;9.95;;;;;;;15.81;34.12;94788.91;5062455;28;20021;-78
2022/03/28 09:44:40;;;;;;;28.73;9.68;;;;;;;15.91;33.86;94778.88;5062386;28;20025;-78
2022/03/28 09:47:08;;;;;;;17.85;9.65;;;;;;;15.90;33.06;94771.94;5066488;28;20024;-78
2022/03/28 09:49:35;;;;;;;25.13;10.65;;;;;;;15.89;33.52;94768.44;5066397;28;20085;-78
2022/03/28 09:52:09;;;;;;;21.85;10.18;;;;;;;15.96;34.14;94776.78;5066304;28;20082;-78
2022/03/28 09:54:56;;;;;;;20.83;8.95;;;;;;;16.14;33.64;94766.75;5066418;28;20029;-78
2022/03/28 09:57:26;;;;;;;34.90;9.88;;;;;;;16.28;33.46;94766.47;5066132;28;20236;-78
2022/03/28 09:59:53;;;;;;;21.27;9.65;;;;;;;16.42;33.51;94766.22;5065084;28;20036;-78
2022/03/28 10:02:24;;;;;;;18.20;8.95;;;;;;;16.57;33.06;94765.66;5065751;28;20032;-78
2022/03/28 10:04:56;;;;;;;18.70;9.40;;;;;;;16.74;32.71;94753.16;5066125;28;20019;-77
2022/03/28 10:07:23;;;;;;;20.48;11.05;;;;;;;16.83;31.75;94748.50;5065914;28;20025;-78
2022/03/28 10:09:50;;;;;;;18.95;10.30;;;;;;;16.89;32.20;94744.50;5066185;28;20027;-77
2022/03/28 10:12:18;;;;;;;28.27;10.73;;;;;;;16.97;32.04;94735.53;5065943;28;20035;-77
2022/03/28 10:14:44;;;;;;;16.25;9.20;;;;;;;17.10;31.84;94735.59;5065799;28;20025;-77
2022/03/28 10:17:10;;;;;;;20.20;9.93;;;;;;;17.26;31.54;94728.47;5064614;28;20075;-77
2022/03/28 10:19:39;;;;;;;19.30;8.98;;;;;;;17.41;31.33;94721.63;5066199;28;20025;-77
2022/03/28 10:22:16;;;;;;;26.65;9.63;;;;;;;17.54;30.77;94711.63;5064845;28;20021;-77
2022/03/28 10:24:44;;;;;;;19.63;10.75;;;;;;;17.68;30.69;94708.59;5063831;28;20059;-77
2022/03/28 10:27:11;;;;;;;23.85;9.75;;;;;;;17.83;30.60;94705.28;5063639;28;20215;-77
2022/03/28 10:29:40;;;;;;;21.75;10.98;;;;;;;17.87;29.18;94697.28;5063579;28;20021;-77
2022/03/28 10:32:09;;;;;;;20.25;10.45;;;;;;;17.79;30.13;94699.72;5063355;28;20095;-77
2022/03/28 10:34:45;;;;;;;21.42;10.15;;;;;;;17.88;30.38;94693.47;5062546;28;20387;-77
2022/03/28 10:37:25;;;;;;;27.20;9.60;;;;;;;18.05;30.61;94690.50;5063107;28;20017;-77
2022/03/28 10:40:11;;;;;;;94.05;17.65;;;;;;;18.24;29.79;94689.94;5065277;28;20033;-77
2022/03/28 10:42:38;;;;;;;25.80;10.60;;;;;;;18.41;29.07;94683.47;5065245;28;20048;-77
2022/03/28 10:45:08;;;;;;;19.10;10.35;;;;;;;18.55;29.36;94672.28;5065320;28;20079;-77
2022/03/28 10:47:48;;;;;;;22.02;10.65;;;;;;;18.73;28.68;94675.47;5065128;28;20043;-77
2022/03/28 10:50:20;;;;;;;26.70;9.50;;;;;;;18.84;29.07;94668.44;5065057;28;20100;-77
2022/03/28 10:53:16;;;;;;;17.98;8.98;;;;;;;19.00;28.84;94669.25;5065454;28;20032;-78
2022/03/28 10:56:01;;;;;;;22.80;10.23;;;;;;;19.09;27.91;94662.91;5065132;28;20323;-78
2022/03/28 10:58:28;;;;;;;59.72;13.40;;;;;;;19.13;28.05;94652.97;5064058;28;20033;-78
2022/03/28 11:01:09;;;;;;;28.33;10.98;;;;;;;19.32;27.17;94660.41;5063840;28;20039;-77
2022/03/28 11:03:43;;;;;;;21.38;9.15;;;;;;;19.34;27.42;94650.03;5064830;28;20032;-76
2022/03/28 11:06:09;;;;;;;25.35;9.25;;;;;;;19.38;27.67;94651.69;5064785;28;20024;-76
2022/03/28 11:08:39;;;;;;;25.80;10.82;;;;;;;19.41;27.40;94648.28;5064865;28;20201;-76
2022/03/28 11:11:21;;;;;;;51.20;13.13;;;;;;;19.51;27.22;94646.97;5064555;28;20052;-76
2022/03/28 11:14:09;;;;;;;39.30;11.90;;;;;;;19.52;27.34;94647.72;5064403;28;20354;-76
2022/03/28 11:16:51;;;;;;;29.80;11.05;;;;;;;19.51;27.35;94638.06;5064643;28;20040;-76
2022/03/28 11:19:35;;;;;;;22.75;10.15;;;;;;;19.58;27.24;94640.91;5064290;28;20043;-76
2022/03/28 11:22:03;;;;;;;30.67;10.73;;;;;;;19.60;26.94;94639.47;5064891;28;20223;-76
2022/03/28 11:24:58;;;;;;;17.27;9.63;;;;;;;19.62;26.90;94630.97;5063375;28;20017;-76
2022/03/28 11:27:37;;;;;;;20.90;8.77;;;;;;;19.61;26.57;94622.09;5064399;28;20029;-76
2022/03/28 11:30:13;;;;;;;32.58;8.75;;;;;;;19.57;26.05;94615.81;5064545;28;20039;-76
2022/03/28 11:32:39;;;;;;;19.65;8.52;;;;;;;19.53;26.65;94614.94;5064387;28;20017;-76
2022/03/28 11:35:06;;;;;;;23.52;9.27;;;;;;;19.56;26.95;94616.97;5064448;28;20316;-76
2022/03/28 11:37:31;;;;;;;61.40;14.82;;;;;;;19.58;27.01;94606.59;5064323;28;20044;-76
2022/03/28 11:40:15;;;;;;;37.47;13.35;;;;;;;19.63;27.13;94610.94;5062526;28;20048;-77
2022/03/28 11:42:46;;;;;;;26.83;12.60;;;;;;;19.62;26.70;94598.53;5064198;28;20345;-77
2022/03/28 11:45:12;;;;;;;25.88;11.70;;;;;;;19.58;26.57;94590.34;5064119;28;20211;-77
2022/03/28 11:47:48;;;;;;;20.23;11.60;;;;;;;19.61;26.73;94588.88;5063929;28;20021;-77
2022/03/28 11:50:14;;;;;;;65.28;16.30;;;;;;;19.68;27.06;94591.72;5063982;28;20063;-77
2022/03/28 11:52:40;;;;;;;24.90;9.68;;;;;;;19.69;26.74;94587.09;5063871;28;20027;-77
2022/03/28 11:55:26;;;;;;;25.08;9.73;;;;;;;19.67;26.45;94582.03;5063592;28;20021;-77
2022/03/28 12:00:39;;;;;;;19.08;7.97;;;;;;;19.79;27.03;94576.53;5063817;28;20388;-77
2022/03/28 12:03:10;;;;;;;21.38;7.57;;;;;;;19.90;27.02;94578.69;5063857;28;20032;-77
2022/03/28 12:05:42;;;;;;;20.73;9.98;;;;;;;20.06;26.29;94567.81;5063796;28;20020;-77
2022/03/28 12:08:15;;;;;;;28.73;11.10;;;;;;;20.17;26.95;94564.19;5063569;28;20032;-77
2022/03/28 12:10:51;;;;;;;30.73;11.82;;;;;;;20.30;26.27;94555.91;5063619;28;20024;-77
2022/03/28 12:13:18;;;;;;;30.02;9.38;;;;;;;20.33;26.10;94544.34;5063345;28;20368;-77
2022/03/28 12:15:47;;;;;;;32.63;11.15;;;;;;;20.45;26.54;94546.91;5063542;28;20036;-77
2022/03/28 12:18:14;;;;;;;22.92;9.30;;;;;;;20.58;25.90;94545.63;5063349;28;20028;-77
2022/03/28 12:20:45;;;;;;;22.83;9.20;;;;;;;20.75;26.02;94546.31;5063617;28;20021;-78
2022/03/28 12:23:13;;;;;;;30.90;10.43;;;;;;;20.96;25.49;94535.81;5063460;28;20028;-77
2022/03/28 12:25:46;;;;;;;27.35;9.43;;;;;;;21.19;25.28;94535.03;5063334;28;20254;-77
2022/03/28 12:28:25;;;;;;;31.27;14.85;;;;;;;21.47;24.38;94534.66;5063222;28;20013;-77
2022/03/28 12:30:55;;;;;;;107.38;17.85;;;;;;;21.76;23.89;94526.94;5063194;28;20088;-76
2022/03/28 12:33:34;;;;;;;62.92;13.13;;;;;;;22.07;23.52;94519.56;5062981;28;20338;-77
2022/03/28 12:36:06;;;;;;;20.92;7.40;;;;;;;22.36;22.58;94512.53;5063246;28;20021;-77
2022/03/28 12:38:35;;;;;;;22.20;8.23;;;;;;;22.50;22.36;94512.66;5063164;28;20039;-77
2022/03/28 12:41:05;;;;;;;18.02;7.30;;;;;;;22.59;22.06;94505.00;5062877;28;20016;-77
2022/03/28 12:43:31;;;;;;;23.08;7.93;;;;;;;22.49;22.13;94504.88;5062995;28;20032;-76
2022/03/28 12:46:06;;;;;;;31.20;8.30;;;;;;;22.69;22.31;94502.75;5063027;28;20040;-76
2022/03/28 12:48:51;;;;;;;15.15;7.43;;;;;;;22.75;21.65;94501.25;5063089;28;20021;-77
2022/03/28 12:51:28;;;;;;;19.02;9.68;;;;;;;22.29;21.64;94501.56;5062756;28;20024;-77
2022/03/28 12:54:05;;;;;;;18.98;8.40;;;;;;;22.44;21.12;94489.72;5062717;28;20048;-77
2022/03/28 12:56:58;;;;;;;17.25;7.47;;;;;;;22.35;20.66;94497.41;5062673;28;20350;-77
2022/03/28 12:59:32;;;;;;;24.35;7.93;;;;;;;22.20;20.58;94488.28;5062735;28;20047;-77
2022/03/28 13:02:09;;;;;;;16.42;7.75;;;;;;;22.16;21.41;94485.50;5062694;28;20219;-77
2022/03/28 13:05:01;;;;;;;25.70;7.95;;;;;;;22.27;21.31;94480.25;5063064;28;20031;-77
2022/03/28 13:07:29;;;;;;;21.10;8.52;;;;;;;22.32;21.37;94485.31;5061478;28;20056;-77
2022/03/28 13:10:03;;;;;;;26.05;10.07;;;;;;;22.44;20.82;94478.84;5062667;28;20032;-77
2022/03/28 13:12:34;;;;;;;23.52;9.93;;;;;;;22.48;20.91;94474.22;5061394;28;20074;-77
2022/03/28 13:15:01;;;;;;;15.88;8.43;;;;;;;22.50;21.30;94477.34;5062525;28;20036;-76
2022/03/28 13:17:26;;;;;;;27.63;10.07;;;;;;;22.51;21.10;94464.53;5061350;28;20036;-77
2022/03/28 13:19:57;;;;;;;28.95;10.60;;;;;;;22.50;21.39;94469.19;5061961;28;20025;-76
2022/03/28 13:22:30;;;;;;;23.27;9.05;;;;;;;22.56;21.33;94459.56;5062344;28;20097;-76
2022/03/28 13:25:16;;;;;;;20.73;9.07;;;;;;;22.66;21.29;94460.03;5062536;28;20013;-76
2022/03/28 13:30:28;;;;;;;25.67;8.68;;;;;;;22.49;21.53;94450.56;5062313;28;20248;-76
2022/03/28 13:32:54;;;;;;;26.02;9.00;;;;;;;22.51;21.24;94449.06;5062264;28;20047;-76
2022/03/28 13:35:22;;;;;;;24.48;9.65;;;;;;;22.54;21.49;94451.00;5062274;28;20036;-76
2022/03/28 13:37:59;;;;;;;19.40;9.05;;;;;;;22.49;21.43;94440.50;5061326;28;20095;-76
2022/03/28 13:40:26;;;;;;;23.23;8.30;;;;;;;22.48;20.90;94443.59;5061119;28;20032;-76
2022/03/28 13:42:52;;;;;;;28.92;9.00;;;;;;;22.36;21.21;94437.25;5062169;28;20021;-76
2022/03/28 13:45:18;;;;;;;21.13;8.77;;;;;;;22.27;21.45;94442.22;5062150;28;20131;-76
2022/03/28 13:47:45;;;;;;;18.73;8.65;;;;;;;22.18;19.23;94439.78;5062247;28;20036;-76
2022/03/28 13:50:12;;;;;;;19.05;7.55;;;;;;;21.92;18.41;94434.47;5061092;28;20029;-76
2022/03/28 13:52:37;;;;;;;22.38;7.90;;;;;;;21.58;18.30;94429.81;5062199;28;20074;-77
2022/03/28 13:55:04;;;;;;;16.23;7.45;;;;;;;21.46;18.13;94423.88;5062063;28;20033;-75
2022/03/28 13:57:31;;;;;;;17.58;8.25;;;;;;;21.03;18.15;94413.97;5061776;28;20041;-76
2022/03/28 13:59:58;;;;;;;22.52;8.55;;;;;;;20.56;18.88;94417.13;5061973;28;20028;-76
2022/03/28 14:02:23;;;;;;;24.08;9.02;;;;;;;20.26;20.42;94419.72;5060721;28;20032;-76
2022/03/28 14:04:49;;;;;;;25.02;9.18;;;;;;;19.90;19.86;94430.69;5061721;28;20017;-76
2022/03/28 14:07:14;;;;;;;17.83;8.82;;;;;;;19.67;19.87;94416.31;5062052;28;20024;-76
2022/03/28 14:09:40;;;;;;;26.23;7.93;;;;;;;19.43;19.69;94428.97;5062046;28;20036;-76
2022/03/28 14:12:06;;;;;;;26.38;9.07;;;;;;;19.37;20.03;94412.25;5062052;28;20216;-76
2022/03/28 14:14:32;;;;;;;20.20;8.63;;;;;;;19.34;19.82;94415.66;5061514;28;20029;-76
2022/03/28 14:16:58;;;;;;;19.13;8.32;;;;;;;19.15;19.62;94412.94;5062064;28;20037;-77
2022/03/28 14:19:26;;;;;;;17.33;6.93;;;;;;;19.17;20.09;94405.25;5061856;28;20104;-76
2022/03/28 14:21:52;;;;;;;14.30;6.47;;;;;;;19.17;19.84;94407.97;5062094;28;20017;-76
2022/03/28 14:24:18;;;;;;;13.23;7.28;;;;;;;19.26;19.29;94402.38;5061827;28;20208;-77
2022/03/28 14:26:43;;;;;;;19.33;7.93;;;;;;;18.79;19.21;94395.97;5061668;28;20036;-76
2022/03/28 14:29:09;;;;;;;22.77;7.57;;;;;;;18.56;20.89;94391.19;5061676;28;20092;-76
2022/03/28 14:31:35;;;;;;;17.13;7.22;;;;;;;18.43;20.34;94392.41;5061715;28;20021;-76
2022/03/28 14:34:01;;;;;;;19.17;7.45;;;;;;;18.42;20.90;94388.16;5065176;28;20029;-77
2022/03/28 14:36:26;;;;;;;13.82;6.70;;;;;;;18.23;20.28;94384.22;5065121;28;20088;-77
2022/03/28 14:38:54;;;;;;;17.77;6.80;;;;;;;18.19;19.89;94385.28;5065166;28;20216;-77
2022/03/28 14:41:24;;;;;;;13.95;6.40;;;;;;;18.14;20.03;94378.25;5065129;28;20036;-77
2022/03/28 14:43:50;;;;;;;17.75;6.65;;;;;;;17.94;20.16;94373.88;5065062;28;20219;-77
2022/03/28 14:49:16;;;;;;;18.27;6.88;;;;;;;17.98;20.83;94380.16;5063465;28;20045;-77
2022/03/28 14:51:43;;;;;;;17.13;7.03;;;;;;;18.04;20.98;94373.38;5064492;28;20063;-76
2022/03/28 14:54:10;;;;;;;16.08;6.13;;;;;;;18.06;20.38;94363.00;5064935;28;20028;-76
2022/03/28 14:56:35;;;;;;;13.88;6.70;;;;;;;18.02;21.08;94362.91;5064918;28;20086;-76
2022/03/28 14:59:01;;;;;;;13.18;6.03;;;;;;;18.14;20.84;94359.34;5063688;28;20025;-77
2022/03/28 15:01:27;;;;;;;17.42;5.63;;;;;;;18.26;18.86;94358.50;5064893;28;20196;-76
2022/03/28 15:03:55;;;;;;;13.07;6.45;;;;;;;18.36;18.15;94359.84;5064865;28;20017;-77
2022/03/28 15:06:21;;;;;;;10.98;5.50;;;;;;;18.33;17.43;94358.63;5064669;28;20378;-76
2022/03/28 15:08:47;;;;;;;10.05;5.55;;;;;;;18.48;19.14;94348.97;5064728;28;20017;-77
2022/03/28 15:11:13;;;;;;;15.48;6.22;;;;;;;18.83;21.53;94362.50;5064803;28;20035;-77
2022/03/28 15:13:41;;;;;;;17.13;5.63;;;;;;;19.27;19.00;94352.56;5064804;28;20093;-77
2022/03/28 15:16:09;;;;;;;12.88;5.13;;;;;;;19.85;17.36;94347.13;5064820;28;20024;-77
2022/03/28 15:18:36;;;;;;;19.58;6.88;;;;;;;20.28;18.71;94364.09;5064692;28;20056;-77
2022/03/28 15:21:01;;;;;;;14.55;6.38;;;;;;;20.97;19.05;94363.19;5064558;28;20029;-77
2022/03/28 15:23:27;;;;;;;18.75;5.85;;;;;;;21.75;16.87;94352.50;5064621;28;20358;-77
2022/03/28 15:25:52;;;;;;;16.25;6.00;;;;;;;22.47;16.20;94347.75;5064683;28;20272;-76
2022/03/28 15:28:18;;;;;;;18.67;5.82;;;;;;;22.79;14.09;94345.22;5064426;28;20342;-77
2022/03/28 15:31:25;;;;;;;14.52;4.97;;;;;;;22.64;14.77;94343.59;5064363;28;20280;-77
2022/03/28 15:33:53;;;;;;;11.15;5.18;;;;;;;22.55;15.11;94334.97;5064421;28;20230;-76
2022/03/28 15:36:28;;;;;;;19.08;5.50;;;;;;;22.50;15.42;94338.84;5064277;28;20227;-77
2022/03/28 15:38:54;;;;;;;14.38;5.70;;;;;;;22.39;16.16;94338.00;5064093;28;20045;-77
2022/03/28 15:41:20;;;;;;;13.70;6.25;;;;;;;21.99;16.76;94334.13;5064166;28;20032;-77
2022/03/28 15:43:46;;;;;;;13.82;6.32;;;;;;;21.75;17.21;94344.38;5063567;28;20031;-77
2022/03/28 15:46:12;;;;;;;17.65;6.45;;;;;;;21.57;18.17;94346.09;5063764;28;20279;-77
2022/03/28 15:48:38;;;;;;;13.57;6.47;;;;;;;21.31;18.98;94338.81;5064152;28;20024;-77
2022/03/28 15:51:03;;;;;;;15.30;5.78;;;;;;;21.05;18.00;94335.03;5063959;28;20318;-76
2022/03/28 15:53:33;;;;;;;11.30;6.90;;;;;;;20.62;18.31;94335.22;5063689;28;20393;-76
2022/03/28 15:56:00;;;;;;;12.27;5.63;;;;;;;20.35;18.32;94330.91;5063281;28;20092;-76
2022/03/28 15:58:26;;;;;;;13.77;6.10;;;;;;;19.93;18.88;94337.22;5063251;28;20171;-77
2022/03/28 16:00:51;;;;;;;14.63;6.28;;;;;;;19.78;19.31;94325.34;5063482;28;20059;-76
2022/03/28 16:03:17;;;;;;;20.80;7.00;;;;;;;19.51;19.56;94319.06;5063724;28;20025;-76
2022/03/28 16:05:43;;;;;;;15.40;6.00;;;;;;;19.32;21.01;94328.75;5063360;28;20021;-76
2022/03/28 16:08:10;;;;;;;18.80;6.63;;;;;;;19.13;21.89;94332.25;5063579;28;20021;-77
2022/03/28 16:10:36;;;;;;;15.77;6.82;;;;;;;19.01;21.56;94325.06;5063771;28;20119;-77
2022/03/28 16:13:05;;;;;;;15.23;6.40;;;;;;;18.84;20.58;94325.47;5063515;28;20043;-77
2022/03/28 16:15:31;;;;;;;15.77;5.93;;;;;;;18.53;21.17;94326.31;5063315;28;20025;-77
2022/03/28 16:17:59;;;;;;;15.95;6.05;;;;;;;18.36;21.34;94325.56;5063487;28;20042;-76
2022/03/28 16:20:24;;;;;;;18.38;6.63;;;;;;;18.14;21.85;94324.28;5063357;28;20020;-77
2022/03/28 16:22:50;;;;;;;13.93;6.03;;;;;;;18.06;22.43;94327.94;5063324;28;20028;-77
2022/03/28 16:25:19;;;;;;;16.88;7.03;;;;;;;17.76;21.88;94320.25;5063330;28;20043;-77
2022/03/28 16:27:44;;;;;;;10.57;5.75;;;;;;;17.54;21.99;94316.22;5063179;28;20227;-77
2022/03/28 16:30:10;;;;;;;13.82;7.43;;;;;;;17.36;22.39;94299.63;5063394;28;20039;-77
2022/03/28 16:32:36;;;;;;;15.80;6.25;;;;;;;17.21;22.37;94316.50;5063375;28;20196;-76
2022/03/28 16:35:05;;;;;;;13.50;7.03;;;;;;;17.07;22.27;94299.97;5062066;28;20033;-77
2022/03/28 16:37:30;;;;;;;17.73;5.85;;;;;;;16.89;22.76;94294.09;5062983;28;20391;-76